Terminal Aerodrome Forecast
Issued by NWS

Home | Current Version | Previous Version | Text Only | Print | Product List | Glossary On
Versions: 1 2 3 4 5 6 7 8 9 10 11 12 13 14
424
FTUS45 KTFX 250543
TAFLWT
TAF
KLWT 250543Z 2506/2606 VRB05KT P6SM SCT100
     FM251800 32008KT P6SM SCT040 BKN070 PROB30 2519/2601 -SHRA
      BKN050
     FM260100 30007KT P6SM VCSH SCT040 BKN070 PROB30 2601/2604 -SHRA
      BKN050=

USA.gov is the U.S. government's official web portal to all federal, state and local government web resources and services.